Bei Facebook empfehlenBei Twitter postenGoogle plusPinterest

Das Wetter im Erzgebirge am 08.05.2017

Wetter und Klima am 08.05.2017 Holzhau im Erzgebirge (630m ü.NN)
Letzte gemessene Temperatur und Uhrzeit der Messung23:45:00 Uhr2.10 °C
Temperatur (Maximum / Höchstwert) und Uhrzeit der Messung08:30:00 Uhr9.30 °C
Temperatur (Minimum / Tiefstwert) und Uhrzeit der Messung05:45:000.80 °C
Errechneter Absolutwert der Temperaturschwankungen zwischen Tmin und Tmax des Tages8.50 K
Errechnete Tagesmitteltemperatur4.69479 °C
Gesamt - Niederschlag des Tages (in flüssiger Form)3.63 Liter / m²
Luftdruck (Maximum / Höchstwert) und Zeitpunkt der Messung23:45:00 Uhr1012.50 hPa
Luftdruck (Minimum / Tiefstwert) und Zeitpunkt der Messung05:30:00 Uhr1008.10 hPa
Errechneter Absolutwert der Luftdruckschwankungen des Tages4.40 hPa
Höchste gemessene Windgeschwindigkeit und Uhrzeit der Messung18:00:00 Uhr8.64 km/h
Errechnete Windhäufigkeit in Relation zu den Messwerten des Tages17.70833 %
Niedrigste Windkühle (Windchill) und Zeitpunkt der Messung05:45:00 Uhr0.80 °C
Taupunkt (Maximum / Höchstwert) und Uhrzeit der Messung08:30:00 Uhr7.60 °C
Taupunkt (Minimum / Tiefstwert) und Uhrzeit der Messung05:45:00-0.20 °C
Anzahl der automatisch eingelesenen Messwerte 96

Detaillierte Wetter- und Klima- Messwerte für den 08.05.2017 in Holzhau im Erzgebirge (630m ü.NN)
ZeitTemperaturLuftdruckRel. LuftfeuchteWindWindrichtungWindchillTaupunktNiederschlag l/m²
23:45:002.10 °C1012.50 hPa94.00 %1.20 °C3.63
23:30:002.20 °C1012.30 hPa94.00 %1.30 °C3.11
23:15:002.30 °C1012.40 hPa94.00 %1.40 °C3.11
23:00:002.40 °C1012.10 hPa94.00 %1.50 °C3.11
22:45:002.70 °C1012.10 hPa94.00 %1.80 °C2.59
22:30:003.10 °C1011.90 hPa94.00 %2.20 °C2.59
22:15:003.40 °C1011.60 hPa94.00 %2.50 °C2.07
22:00:003.80 °C1011.60 hPa94.00 %2.90 °C2.07
21:45:004.30 °C1011.30 hPa94.00 %2.16 km/hOSO4.30 °C3.40 °C2.07
21:30:004.80 °C1011.00 hPa94.00 %3.90 °C2.07
21:15:005.00 °C1010.80 hPa94.00 %4.10 °C2.07
21:00:004.90 °C1010.50 hPa94.00 %4.00 °C1.55
20:45:005.00 °C1010.70 hPa94.00 %4.10 °C1.55
20:30:004.90 °C1010.50 hPa94.00 %4.00 °C1.55
20:15:005.00 °C1010.50 hPa94.00 %4.10 °C1.04
20:00:005.10 °C1010.40 hPa94.00 %4.20 °C1.04
19:45:005.10 °C1010.30 hPa94.00 %4.20 °C1.04
19:30:005.10 °C1010.30 hPa94.00 %4.20 °C1.04
19:15:005.10 °C1010.50 hPa94.00 %3.60 km/hWNW5.10 °C4.20 °C1.04
19:00:005.10 °C1010.60 hPa94.00 %4.20 °C1.04
18:45:005.00 °C1010.70 hPa94.00 %4.10 °C1.04
18:30:005.00 °C1010.70 hPa94.00 %4.10 °C1.04
18:15:005.00 °C1010.90 hPa94.00 %1.08 km/hNW5.00 °C4.10 °C1.04
18:00:005.00 °C1010.80 hPa94.00 %8.64 km/hNW3.00 °C4.10 °C1.04
17:45:005.10 °C1010.80 hPa94.00 %2.88 km/hWNW5.10 °C4.20 °C1.04
17:30:005.20 °C1010.90 hPa94.00 %4.30 °C1.04
17:15:005.30 °C1010.70 hPa94.00 %4.40 °C1.04
17:00:005.40 °C1010.50 hPa94.00 %7.20 km/hWNW3.80 °C4.50 °C1.04
16:45:005.40 °C1010.40 hPa94.00 %1.44 km/hN5.40 °C4.50 °C1.04
16:30:005.50 °C1010.30 hPa93.00 %4.50 °C1.04
16:15:005.60 °C1010.30 hPa93.00 %4.68 km/hNNW5.60 °C4.60 °C1.04
16:00:005.50 °C1009.90 hPa94.00 %4.60 °C1.04
15:45:005.40 °C1010.10 hPa94.00 %4.50 °C1.04
15:30:005.30 °C1010.00 hPa94.00 %4.40 °C1.04
15:15:005.30 °C1009.90 hPa94.00 %4.40 °C1.04
15:00:005.60 °C1010.10 hPa94.00 %7.92 km/hNW3.90 °C4.70 °C1.04
14:45:005.40 °C1010.10 hPa94.00 %4.50 °C1.04
14:30:005.30 °C1010.20 hPa94.00 %4.40 °C1.04
14:15:005.20 °C1010.20 hPa94.00 %4.30 °C1.04
14:00:005.20 °C1010.00 hPa94.00 %4.30 °C1.04
13:45:005.10 °C1010.00 hPa93.00 %4.10 °C1.04
13:30:005.20 °C1010.00 hPa94.00 %6.84 km/hW3.70 °C4.30 °C1.04
13:15:005.30 °C1009.90 hPa94.00 %4.40 °C1.04
13:00:005.40 °C1010.00 hPa94.00 %2.88 km/hNW5.40 °C4.50 °C1.04
12:45:005.30 °C1009.90 hPa93.00 %4.30 °C1.04
12:30:005.40 °C1010.10 hPa93.00 %2.52 km/hNW5.40 °C4.40 °C1.04
12:15:005.90 °C1010.20 hPa92.00 %6.84 km/hWNW4.50 °C4.70 °C1.04
12:00:006.30 °C1010.10 hPa92.00 %5.10 °C1.04
11:45:006.70 °C1009.80 hPa92.00 %1.44 km/hWNW6.70 °C5.50 °C1.04
11:30:007.10 °C1009.60 hPa92.00 %5.90 °C 
11:15:007.40 °C1009.50 hPa91.00 %6.00 °C 
11:00:007.60 °C1009.40 hPa91.00 %6.20 °C 
10:45:007.70 °C1009.30 hPa92.00 %6.50 °C 
10:30:007.50 °C1009.20 hPa92.00 %6.30 °C 
10:15:007.80 °C1009.40 hPa92.00 %4.68 km/hWNW7.80 °C6.60 °C 
10:00:008.20 °C1009.10 hPa92.00 %2.52 km/hW8.20 °C7.00 °C 
09:45:008.50 °C1009.10 hPa91.00 %0.72 km/hWNW8.50 °C7.10 °C 
09:30:008.60 °C1008.90 hPa91.00 %7.20 °C 
09:15:008.80 °C1008.90 hPa90.00 %7.30 °C 
09:00:008.90 °C1008.80 hPa89.00 %7.20 °C 
08:45:009.10 °C1008.80 hPa89.00 %7.40 °C 
08:30:009.30 °C1008.90 hPa89.00 %7.60 °C 
08:15:009.20 °C1008.70 hPa90.00 %7.60 °C 
08:00:008.40 °C1008.80 hPa91.00 %7.00 °C 
07:45:007.40 °C1008.50 hPa93.00 %6.30 °C 
07:30:006.10 °C1008.50 hPa94.00 %5.20 °C 
07:15:004.20 °C1008.50 hPa95.00 %3.50 °C 
07:00:002.50 °C1008.40 hPa94.00 %1.60 °C 
06:45:001.90 °C1008.40 hPa94.00 %1.00 °C 
06:30:001.50 °C1008.40 hPa93.00 %0.50 °C 
06:15:001.20 °C1008.20 hPa93.00 %0.20 °C 
06:00:000.90 °C1008.20 hPa93.00 %-0.10 °C 
05:45:000.80 °C1008.30 hPa93.00 %-0.20 °C 
05:30:000.90 °C1008.10 hPa93.00 %-0.10 °C 
05:15:001.20 °C1008.30 hPa93.00 %0.20 °C 
05:00:001.30 °C1008.10 hPa92.00 %0.10 °C 
04:45:001.30 °C1008.10 hPa92.00 %0.10 °C 
04:30:001.30 °C1008.20 hPa92.00 %0.10 °C 
04:15:001.40 °C1008.30 hPa92.00 %0.20 °C 
04:00:001.60 °C1008.20 hPa92.00 %0.40 °C 
03:45:001.60 °C1008.40 hPa92.00 %0.40 °C 
03:30:001.90 °C1008.40 hPa92.00 %0.70 °C 
03:15:002.10 °C1008.40 hPa91.00 %0.80 °C 
03:00:002.40 °C1008.40 hPa91.00 %1.10 °C 
02:45:002.70 °C1008.50 hPa91.00 %1.40 °C 
02:30:003.00 °C1008.40 hPa91.00 %1.70 °C 
02:15:003.40 °C1008.50 hPa91.00 %2.10 °C 
02:00:003.50 °C1008.50 hPa91.00 %2.20 °C 
01:45:003.60 °C1008.60 hPa91.00 %2.30 °C 
01:30:003.80 °C1008.60 hPa91.00 %2.50 °C 
01:15:003.90 °C1008.70 hPa91.00 %2.60 °C 
01:00:004.00 °C1008.80 hPa91.00 %2.70 °C 
00:45:004.30 °C1008.90 hPa91.00 %3.00 °C 
00:30:004.40 °C1008.90 hPa91.00 %3.10 °C 
00:15:004.40 °C1008.80 hPa91.00 %3.10 °C 
00:00:004.40 °C1008.80 hPa90.00 %2.90 °C 

Permanenter Link zu dieser Seite: Wetter im Erzgebirge am 08.05.2017
Performance-Info: Die Erstellung der Seite / Statistik(en) / Tabelle(n) erforderte 5 Datenbankserver-Abfrage(n) und dauerte 101 Millisekunden. (Dieser Messwert ist von der Gesamt-Auslastung des Servers abhängig.)
Erzgebirge - Wetter | Erzgebirge - Wetter (Mobilgeräte) | Komplette Klimadatenbank